Time;durP1;ratioP1;P1;durP2;ratioP2;P2;SDS_P1;SDS_P2;PMS_P1;PMS_P2;Temp;Humidity;BMP_temperature;BMP_pressure;BME280_temperature;BME280_humidity;BME280_pressure;Samples;Min_cycle;Max_cycle;Signal;HPM_P1;HPM_P2
2023/06/02 00:01:49;;;;;;;25.30;6.07;;;10.40;88.30;;;;;;5011313;28;20026;-44
2023/06/02 00:04:17;;;;;;;17.23;5.15;;;10.50;88.30;;;;;;5034019;28;20022;-46
2023/06/02 00:06:45;;;;;;;15.27;4.03;;;10.50;88.20;;;;;;5028204;28;20049;-44
2023/06/02 00:09:14;;;;;;;25.38;6.43;;;10.60;88.20;;;;;;5035024;28;20021;-45
2023/06/02 00:11:40;;;;;;;19.20;4.60;;;10.60;88.20;;;;;;5030320;28;20052;-44
2023/06/02 00:14:06;;;;;;;22.83;5.60;;;10.60;88.30;;;;;;5029613;28;20439;-45
2023/06/02 00:16:43;;;;;;;21.80;6.00;;;10.70;88.30;;;;;;5028073;28;20054;-43
2023/06/02 00:19:11;;;;;;;26.67;5.90;;;10.70;88.40;;;;;;5029472;28;20026;-46
2023/06/02 00:21:40;;;;;;;31.75;6.90;;;10.70;88.50;;;;;;5027764;28;20112;-47
2023/06/02 00:24:07;;;;;;;25.80;5.10;;;10.70;88.50;;;;;;5023612;28;20360;-46
2023/06/02 00:26:35;;;;;;;23.98;5.80;;;10.80;88.50;;;;;;5032592;28;20655;-44
2023/06/02 00:29:02;;;;;;;20.65;5.75;;;10.80;88.50;;;;;;5030907;28;20029;-43
2023/06/02 00:31:29;;;;;;;26.40;5.60;;;10.90;88.50;;;;;;5029440;28;20080;-44
2023/06/02 00:33:56;;;;;;;23.20;6.68;;;10.90;88.50;;;;;;5032636;28;20116;-43
2023/06/02 00:36:22;;;;;;;21.00;5.18;;;10.90;88.60;;;;;;5025209;28;20101;-44
2023/06/02 00:38:49;;;;;;;33.33;7.97;;;10.90;88.60;;;;;;5030765;28;20079;-45
2023/06/02 00:41:16;;;;;;;16.90;6.03;;;10.90;88.70;;;;;;5032834;28;20017;-43
2023/06/02 00:43:43;;;;;;;23.13;4.85;;;10.90;88.70;;;;;;5032965;28;20084;-43
2023/06/02 00:46:10;;;;;;;21.70;6.15;;;10.90;88.80;;;;;;5024193;28;20045;-44
2023/06/02 00:48:37;;;;;;;22.77;7.25;;;10.90;88.80;;;;;;5030534;28;20459;-44
2023/06/02 00:51:04;;;;;;;26.98;6.05;;;11.00;88.70;;;;;;5028147;28;20470;-44
2023/06/02 00:53:32;;;;;;;23.45;5.05;;;11.00;88.70;;;;;;5024976;28;20044;-45
2023/06/02 00:56:00;;;;;;;22.17;7.88;;;11.00;88.70;;;;;;5032472;28;20096;-47
2023/06/02 00:58:28;;;;;;;22.67;5.82;;;11.00;88.80;;;;;;5019882;28;20018;-46
2023/06/02 01:00:55;;;;;;;27.88;5.30;;;11.00;88.80;;;;;;5024792;28;20112;-45
2023/06/02 01:03:25;;;;;;;24.27;6.35;;;11.00;88.90;;;;;;5000855;28;20057;-44
2023/06/02 01:05:55;;;;;;;30.75;6.35;;;11.00;88.90;;;;;;5027864;28;20026;-44
2023/06/02 01:08:23;;;;;;;30.75;7.38;;;11.00;88.80;;;;;;5013158;28;20050;-45
2023/06/02 01:10:50;;;;;;;26.40;6.15;;;11.00;88.80;;;;;;5027351;28;20351;-44
2023/06/02 01:13:17;;;;;;;25.83;6.25;;;11.10;88.90;;;;;;5032628;28;20443;-44
2023/06/02 01:15:48;;;;;;;27.35;6.50;;;11.10;88.90;;;;;;5028589;28;20455;-44
2023/06/02 01:18:25;;;;;;;21.50;5.75;;;11.00;89.00;;;;;;5032841;28;20431;-44
2023/06/02 01:20:57;;;;;;;24.98;5.57;;;11.10;89.00;;;;;;5030271;28;20033;-45
2023/06/02 01:23:35;;;;;;;21.95;5.50;;;11.10;89.10;;;;;;5033176;28;20025;-43
2023/06/02 01:26:05;;;;;;;27.98;6.05;;;11.10;89.10;;;;;;5027441;28;20026;-44
2023/06/02 01:28:32;;;;;;;21.67;6.32;;;11.10;89.30;;;;;;5024915;28;20033;-43
2023/06/02 01:31:22;;;;;;;23.92;5.65;;;11.10;89.30;;;;;;5031330;28;20465;-45
2023/06/02 01:34:20;;;;;;;29.60;7.63;;;11.10;89.40;;;;;;5021072;28;20487;-44
2023/06/02 01:36:52;;;;;;;26.63;6.93;;;11.10;89.40;;;;;;5028598;28;20398;-45
2023/06/02 01:39:20;;;;;;;26.55;6.80;;;11.10;89.50;;;;;;5025396;28;20022;-45
2023/06/02 01:41:47;;;;;;;23.55;6.85;;;11.10;89.50;;;;;;5031133;28;20040;-45
2023/06/02 01:44:16;;;;;;;26.25;5.82;;;11.20;89.60;;;;;;5032927;28;20136;-45
2023/06/02 01:46:44;;;;;;;21.83;5.83;;;11.10;89.60;;;;;;5025682;28;20034;-44
2023/06/02 01:49:17;;;;;;;22.58;5.50;;;11.20;89.60;;;;;;5032586;28;20044;-44
2023/06/02 01:51:45;;;;;;;25.50;6.97;;;11.10;89.70;;;;;;5028669;28;20048;-44
2023/06/02 01:54:12;;;;;;;24.48;7.70;;;11.10;89.70;;;;;;5019595;28;20041;-44
2023/06/02 01:56:39;;;;;;;30.73;7.43;;;11.20;89.70;;;;;;5029239;28;20017;-45
2023/06/02 01:59:05;;;;;;;19.52;5.90;;;11.20;89.70;;;;;;5032398;28;20041;-45
2023/06/02 02:01:34;;;;;;;30.88;6.75;;;11.20;89.70;;;;;;5020081;28;20026;-44
2023/06/02 02:04:01;;;;;;;31.17;6.80;;;11.20;89.70;;;;;;5019589;28;20024;-44
2023/06/02 02:06:34;;;;;;;30.35;6.00;;;11.20;89.80;;;;;;5032342;28;20025;-44
2023/06/02 02:09:00;;;;;;;23.25;7.05;;;11.20;89.80;;;;;;5023592;28;20124;-44
2023/06/02 02:11:27;;;;;;;24.42;7.28;;;11.20;89.80;;;;;;5019530;28;20385;-45
2023/06/02 02:13:54;;;;;;;25.63;7.70;;;11.20;89.80;;;;;;5015193;28;20037;-44
2023/06/02 02:16:22;;;;;;;31.55;6.88;;;11.20;89.80;;;;;;5024555;28;20021;-47
2023/06/02 02:18:52;;;;;;;29.85;7.78;;;11.20;89.90;;;;;;5019098;28;20451;-45
2023/06/02 02:21:19;;;;;;;32.75;6.18;;;11.20;89.90;;;;;;5021849;28;20060;-46
2023/06/02 02:23:46;;;;;;;28.67;6.45;;;11.20;90.00;;;;;;5019071;28;20021;-45
2023/06/02 02:26:14;;;;;;;26.83;7.10;;;11.20;90.10;;;;;;5027082;28;20034;-45
2023/06/02 02:28:41;;;;;;;22.23;5.47;;;11.20;90.10;;;;;;5029995;28;20025;-45
2023/06/02 02:31:08;;;;;;;20.27;7.32;;;11.20;90.10;;;;;;5028500;28;20122;-44
2023/06/02 02:33:35;;;;;;;24.13;5.90;;;11.20;90.20;;;;;;5031105;28;20028;-43
2023/06/02 02:36:02;;;;;;;29.90;7.88;;;11.20;90.20;;;;;;5029915;28;20026;-44
2023/06/02 02:38:29;;;;;;;23.90;6.13;;;11.20;90.20;;;;;;5031987;28;20035;-45
2023/06/02 02:40:56;;;;;;;24.27;8.00;;;11.30;90.30;;;;;;5026379;28;20044;-45
2023/06/02 02:43:22;;;;;;;26.80;6.72;;;11.30;90.20;;;;;;5031140;28;20414;-45
2023/06/02 02:45:49;;;;;;;24.83;6.63;;;11.30;90.20;;;;;;5023366;28;20041;-44
2023/06/02 02:48:15;;;;;;;24.40;6.22;;;11.20;90.30;;;;;;5035978;28;20091;-45
2023/06/02 02:50:42;;;;;;;24.58;8.15;;;11.10;90.30;;;;;;5030807;28;20109;-43
2023/06/02 02:53:15;;;;;;;23.02;5.65;;;11.10;90.30;;;;;;5035244;28;20029;-44
2023/06/02 02:55:44;;;;;;;24.50;5.72;;;11.10;90.30;;;;;;5035682;28;20068;-44
2023/06/02 02:58:10;;;;;;;40.92;8.15;;;11.00;90.40;;;;;;5032302;28;20045;-45
2023/06/02 03:00:37;;;;;;;25.52;7.90;;;10.90;90.50;;;;;;5029001;28;20029;-44
2023/06/02 03:03:05;;;;;;;30.75;6.80;;;10.90;90.60;;;;;;5024924;28;20112;-45
2023/06/02 03:05:34;;;;;;;23.75;7.05;;;10.90;90.70;;;;;;5026967;28;20033;-45
2023/06/02 03:08:03;;;;;;;15.27;5.93;;;10.80;90.90;;;;;;5029957;28;20366;-44
2023/06/02 03:10:28;;;;;;;17.98;5.72;;;10.80;90.90;;;;;;5027972;28;20029;-44
2023/06/02 03:12:55;;;;;;;28.90;7.47;;;10.70;90.80;;;;;;5033968;28;20036;-44
2023/06/02 03:15:22;;;;;;;27.30;7.25;;;10.70;90.90;;;;;;5031214;28;20104;-44
2023/06/02 03:17:50;;;;;;;26.27;5.97;;;10.70;91.10;;;;;;5026177;28;20443;-45
2023/06/02 03:20:17;;;;;;;16.90;4.82;;;10.60;91.00;;;;;;5021648;28;20038;-44
2023/06/02 03:22:44;;;;;;;19.00;6.00;;;10.60;91.30;;;;;;5029166;28;20040;-44
2023/06/02 03:25:11;;;;;;;23.52;5.35;;;10.50;91.20;;;;;;5035583;28;20100;-44
2023/06/02 03:27:38;;;;;;;26.75;6.43;;;10.50;91.20;;;;;;5035457;28;20025;-44
2023/06/02 03:30:06;;;;;;;29.40;5.70;;;10.50;91.30;;;;;;5027088;28;20061;-44
2023/06/02 03:32:32;;;;;;;33.05;7.80;;;10.50;91.30;;;;;;5026776;28;20044;-45
2023/06/02 03:35:02;;;;;;;21.42;5.32;;;10.40;91.20;;;;;;5026888;28;20029;-45
2023/06/02 03:37:29;;;;;;;25.75;5.85;;;10.40;91.20;;;;;;5021258;28;20029;-45
2023/06/02 03:39:56;;;;;;;26.70;5.13;;;10.40;91.30;;;;;;5032746;28;20049;-44
2023/06/02 03:42:23;;;;;;;27.23;6.47;;;10.40;91.30;;;;;;5027518;28;20128;-44
2023/06/02 03:44:49;;;;;;;19.60;6.00;;;10.30;91.30;;;;;;5025246;28;20068;-44
2023/06/02 03:47:16;;;;;;;27.85;6.88;;;10.30;91.40;;;;;;5031681;28;20116;-44
2023/06/02 03:49:43;;;;;;;26.75;6.38;;;10.30;91.50;;;;;;5034073;28;20029;-43
2023/06/02 03:52:10;;;;;;;26.48;5.93;;;10.30;91.60;;;;;;5034962;28;20021;-44
2023/06/02 03:54:35;;;;;;;28.77;6.38;;;10.30;91.60;;;;;;5024213;28;20026;-44
2023/06/02 03:57:03;;;;;;;21.27;5.60;;;10.30;91.60;;;;;;5030478;28;20562;-44
2023/06/02 03:59:33;;;;;;;21.67;6.40;;;10.30;91.50;;;;;;5026266;28;20040;-43
2023/06/02 04:02:00;;;;;;;20.60;5.28;;;10.30;91.50;;;;;;5027245;28;20067;-44
2023/06/02 04:04:27;;;;;;;23.10;5.05;;;10.30;91.50;;;;;;5033338;28;20033;-45
2023/06/02 04:06:53;;;;;;;14.90;4.75;;;10.30;91.40;;;;;;5033421;28;20107;-46
2023/06/02 04:09:21;;;;;;;11.93;4.70;;;10.30;91.40;;;;;;5032327;28;20728;-44
2023/06/02 04:11:49;;;;;;;19.92;5.25;;;10.40;91.30;;;;;;5034800;28;20454;-44
2023/06/02 04:14:15;;;;;;;15.82;4.70;;;10.30;91.20;;;;;;5025829;28;20030;-44
2023/06/02 04:16:45;;;;;;;17.52;5.25;;;10.40;91.30;;;;;;5034258;28;20034;-44
2023/06/02 04:19:12;;;;;;;15.80;4.93;;;10.40;91.30;;;;;;5025505;28;20437;-44
2023/06/02 04:21:41;;;;;;;24.45;6.45;;;10.40;91.30;;;;;;5016803;28;20061;-44
2023/06/02 04:24:11;;;;;;;21.67;5.53;;;10.50;91.30;;;;;;5015551;28;20497;-45
2023/06/02 04:26:38;;;;;;;19.02;5.75;;;10.60;91.30;;;;;;5017512;28;20107;-44
2023/06/02 04:29:05;;;;;;;17.98;5.13;;;10.70;91.30;;;;;;5031517;28;20041;-44
2023/06/02 04:31:49;;;;;;;18.60;5.80;;;10.70;91.20;;;;;;5029371;28;20028;-44
2023/06/02 04:34:16;;;;;;;22.88;6.78;;;10.90;91.30;;;;;;5026903;28;20033;-44
2023/06/02 04:36:43;;;;;;;17.17;5.45;;;11.00;91.00;;;;;;5030688;28;20060;-45
2023/06/02 04:39:09;;;;;;;22.15;5.10;;;11.10;91.00;;;;;;5024304;28;20466;-44
2023/06/02 04:41:36;;;;;;;16.63;5.13;;;11.30;91.00;;;;;;5032974;28;20021;-44
2023/06/02 04:44:05;;;;;;;17.13;5.40;;;11.40;90.50;;;;;;5033938;28;20417;-44
2023/06/02 04:46:33;;;;;;;23.17;6.38;;;11.40;90.40;;;;;;5027854;28;20772;-43
2023/06/02 04:49:00;;;;;;;24.17;5.97;;;11.50;90.20;;;;;;5031130;28;20886;-44
2023/06/02 04:51:28;;;;;;;25.63;5.78;;;11.50;90.40;;;;;;5024628;28;20112;-44
2023/06/02 04:53:55;;;;;;;22.63;5.30;;;11.60;90.50;;;;;;5026534;28;20038;-44
2023/06/02 04:56:25;;;;;;;22.98;5.30;;;11.60;90.70;;;;;;5031252;28;20391;-45
2023/06/02 04:58:52;;;;;;;26.67;8.10;;;11.70;90.90;;;;;;5031262;28;20026;-45
2023/06/02 05:01:19;;;;;;;19.55;6.00;;;11.80;91.10;;;;;;5033747;28;20617;-45
2023/06/02 05:03:45;;;;;;;18.02;5.60;;;11.90;91.30;;;;;;5033818;28;20025;-44
2023/06/02 05:06:11;;;;;;;18.70;5.00;;;11.90;91.40;;;;;;5028346;28;20046;-44
2023/06/02 05:08:40;;;;;;;25.38;6.32;;;12.00;91.40;;;;;;5014035;28;20089;-44
2023/06/02 05:11:09;;;;;;;27.27;6.20;;;12.10;91.30;;;;;;5020485;28;20037;-45
2023/06/02 05:13:35;;;;;;;21.33;6.78;;;12.20;91.40;;;;;;5029416;28;20029;-46
2023/06/02 05:16:02;;;;;;;17.20;5.18;;;12.30;91.40;;;;;;5033392;28;20447;-44
2023/06/02 05:18:29;;;;;;;13.45;4.85;;;12.40;91.40;;;;;;5032490;28;20018;-45
2023/06/02 05:20:56;;;;;;;9.13;2.50;;;12.50;91.10;;;;;;5031899;28;20022;-45
2023/06/02 05:23:23;;;;;;;5.90;2.40;;;12.40;90.40;;;;;;5032417;28;20029;-44
2023/06/02 05:25:52;;;;;;;10.13;2.72;;;12.60;89.90;;;;;;5033347;28;20037;-45
2023/06/02 05:28:19;;;;;;;10.10;2.10;;;12.60;88.80;;;;;;5028321;28;20026;-45
2023/06/02 05:30:46;;;;;;;4.28;1.55;;;12.60;88.10;;;;;;5026941;28;20029;-46
2023/06/02 05:33:13;;;;;;;5.72;1.92;;;12.70;87.40;;;;;;5021343;28;20439;-44
2023/06/02 05:35:39;;;;;;;9.93;2.05;;;12.70;86.20;;;;;;5033244;28;20036;-45
2023/06/02 05:38:06;;;;;;;6.43;1.70;;;12.80;85.70;;;;;;5033031;28;20064;-48
2023/06/02 05:40:33;;;;;;;7.38;1.60;;;12.90;85.30;;;;;;5028015;28;20022;-46
2023/06/02 05:43:01;;;;;;;8.23;1.50;;;12.90;84.50;;;;;;5031198;28;20395;-46
2023/06/02 05:45:27;;;;;;;24.33;4.78;;;13.00;83.60;;;;;;5026788;28;20040;-45
2023/06/02 05:47:55;;;;;;;20.30;4.38;;;13.20;82.20;;;;;;5031785;28;20033;-44
2023/06/02 05:50:22;;;;;;;34.78;5.85;;;13.40;82.20;;;;;;5031583;28;20031;-45
2023/06/02 05:52:50;;;;;;;7.80;2.15;;;13.60;80.70;;;;;;5032698;28;20076;-46
2023/06/02 05:55:17;;;;;;;8.10;1.77;;;13.90;80.40;;;;;;5032782;28;20026;-45
2023/06/02 05:57:44;;;;;;;3.38;1.27;;;14.20;78.80;;;;;;5030032;28;20037;-44
2023/06/02 06:00:11;;;;;;;5.05;2.13;;;14.50;77.70;;;;;;5025216;28;20033;-44
2023/06/02 06:02:38;;;;;;;5.13;1.38;;;14.60;76.30;;;;;;5022894;28;20033;-46
2023/06/02 06:05:06;;;;;;;7.18;2.33;;;14.80;75.70;;;;;;5031163;28;20040;-45
2023/06/02 06:07:33;;;;;;;29.05;5.60;;;14.90;75.40;;;;;;5024866;28;20053;-45
2023/06/02 06:10:01;;;;;;;7.30;2.55;;;14.90;74.30;;;;;;5021060;28;20468;-45
2023/06/02 06:12:29;;;;;;;25.70;4.75;;;14.90;74.50;;;;;;5028698;28;20026;-45
2023/06/02 06:14:56;;;;;;;8.68;1.75;;;14.90;74.70;;;;;;5028574;28;20112;-44
2023/06/02 06:17:21;;;;;;;6.07;2.00;;;14.90;74.20;;;;;;5023917;28;20026;-45
2023/06/02 06:19:48;;;;;;;7.03;1.98;;;14.90;74.10;;;;;;5015496;28;20155;-45
2023/06/02 06:22:15;;;;;;;10.35;1.55;;;14.90;75.10;;;;;;5032742;28;20029;-46
2023/06/02 06:24:42;;;;;;;5.93;1.17;;;15.00;75.00;;;;;;5029735;28;20037;-45
2023/06/02 06:27:09;;;;;;;10.13;2.15;;;15.10;75.00;;;;;;5032303;28;20057;-44
2023/06/02 06:29:35;;;;;;;5.05;1.30;;;14.90;74.20;;;;;;5019543;28;20042;-48
2023/06/02 06:32:01;;;;;;;8.27;1.92;;;15.00;75.60;;;;;;5027422;28;20026;-47
2023/06/02 06:34:27;;;;;;;8.50;1.73;;;15.00;75.30;;;;;;5026892;28;20025;-45
2023/06/02 06:36:54;;;;;;;4.60;1.48;;;15.00;74.30;;;;;;5029968;28;20334;-46
2023/06/02 06:39:21;;;;;;;7.13;1.85;;;14.90;75.30;;;;;;5030954;28;20026;-44
2023/06/02 06:41:48;;;;;;;4.82;1.55;;;14.90;75.60;;;;;;5030003;28;20118;-45
2023/06/02 06:44:14;;;;;;;4.07;1.58;;;15.00;75.70;;;;;;5032521;28;20021;-44
2023/06/02 06:46:42;;;;;;;5.90;1.65;;;14.90;75.00;;;;;;5025538;28;20033;-45
2023/06/02 06:49:08;;;;;;;11.02;2.67;;;14.90;75.90;;;;;;5027584;28;20029;-46
2023/06/02 06:51:37;;;;;;;17.40;3.63;;;14.90;76.20;;;;;;5025808;28;20026;-45
2023/06/02 06:54:04;;;;;;;7.95;2.10;;;14.80;75.90;;;;;;5024562;28;20359;-45
2023/06/02 06:56:31;;;;;;;17.58;2.83;;;14.90;76.60;;;;;;5025394;28;20061;-48
2023/06/02 06:58:58;;;;;;;10.90;2.95;;;14.90;75.80;;;;;;5028442;28;20351;-45
2023/06/02 07:01:25;;;;;;;11.60;2.05;;;14.90;75.90;;;;;;5020523;28;20017;-46
2023/06/02 07:03:52;;;;;;;5.05;1.60;;;15.00;75.80;;;;;;5032383;28;20048;-45
2023/06/02 07:06:20;;;;;;;6.40;1.60;;;15.00;76.20;;;;;;5032271;28;20113;-46
2023/06/02 07:08:45;;;;;;;6.95;2.28;;;15.10;76.80;;;;;;5026990;28;20116;-48
2023/06/02 07:11:12;;;;;;;14.07;3.42;;;15.20;76.00;;;;;;5030753;28;20021;-45
2023/06/02 07:13:39;;;;;;;9.93;2.55;;;15.20;74.90;;;;;;5031756;28;20026;-45
2023/06/02 07:16:05;;;;;;;8.70;2.35;;;15.20;75.40;;;;;;5026324;28;20018;-46
2023/06/02 07:18:32;;;;;;;10.95;2.90;;;15.30;75.10;;;;;;5022018;28;20034;-45
2023/06/02 07:20:59;;;;;;;10.43;1.98;;;15.80;75.80;;;;;;5034222;28;20040;-46
2023/06/02 07:23:29;;;;;;;8.27;2.35;;;16.20;73.40;;;;;;5022728;28;20030;-44
2023/06/02 07:25:56;;;;;;;15.98;4.00;;;16.70;71.80;;;;;;5026589;28;20092;-46
2023/06/02 07:28:23;;;;;;;20.60;4.45;;;17.10;69.70;;;;;;5023514;28;20037;-49
2023/06/02 07:30:49;;;;;;;8.82;3.08;;;17.30;68.30;;;;;;5029743;28;20040;-45
2023/06/02 07:33:16;;;;;;;14.07;3.33;;;17.30;68.80;;;;;;5025530;28;20029;-46
2023/06/02 07:35:43;;;;;;;7.32;1.98;;;17.50;69.70;;;;;;5020401;28;20025;-46
2023/06/02 07:38:10;;;;;;;6.45;2.42;;;17.80;67.70;;;;;;5026375;28;20167;-45
2023/06/02 07:40:37;;;;;;;6.00;1.85;;;17.50;67.60;;;;;;5034841;28;20052;-45
2023/06/02 07:43:04;;;;;;;6.88;1.90;;;17.80;67.50;;;;;;5034577;28;20029;-45
2023/06/02 07:45:31;;;;;;;4.60;1.73;;;18.00;66.30;;;;;;5034514;28;20033;-47
2023/06/02 07:47:56;;;;;;;7.78;2.40;;;18.40;67.00;;;;;;5026268;28;20375;-47
2023/06/02 07:50:24;;;;;;;5.97;1.85;;;18.60;65.90;;;;;;5033123;28;20029;-46
2023/06/02 07:52:50;;;;;;;6.88;2.47;;;18.50;65.10;;;;;;5022471;28;20077;-45
2023/06/02 07:55:16;;;;;;;6.97;2.47;;;18.50;66.00;;;;;;5024143;28;20087;-45
2023/06/02 07:57:43;;;;;;;7.60;2.55;;;18.70;65.60;;;;;;5033565;28;20029;-46
2023/06/02 08:00:21;;;;;;;9.25;3.05;;;18.90;66.10;;;;;;5033972;28;20128;-45
2023/06/02 08:02:48;;;;;;;9.27;3.15;;;18.80;66.90;;;;;;5026823;28;20125;-47
2023/06/02 08:05:15;;;;;;;14.35;3.05;;;18.90;66.50;;;;;;5031527;28;20342;-45
2023/06/02 08:07:43;;;;;;;5.70;2.30;;;19.00;66.70;;;;;;5022720;28;20052;-47
2023/06/02 08:10:11;;;;;;;10.13;2.33;;;18.90;66.90;;;;;;5032408;28;20037;-47
2023/06/02 08:12:38;;;;;;;6.35;3.17;;;18.90;67.50;;;;;;5032882;28;20033;-47
2023/06/02 08:15:06;;;;;;;10.77;3.15;;;18.20;69.00;;;;;;5024166;28;20424;-46
2023/06/02 08:17:32;;;;;;;9.25;4.15;;;17.90;70.10;;;;;;5024877;28;20045;-45
2023/06/02 08:20:01;;;;;;;8.48;2.75;;;17.60;72.30;;;;;;5032142;28;20026;-46
2023/06/02 08:22:28;;;;;;;8.77;3.28;;;18.00;72.70;;;;;;5032275;28;20033;-46
2023/06/02 08:24:56;;;;;;;20.83;5.43;;;18.60;71.70;;;;;;5030419;28;20458;-45
2023/06/02 08:27:24;;;;;;;29.02;7.53;;;18.50;68.80;;;;;;5033014;28;20048;-46
2023/06/02 08:29:51;;;;;;;11.65;4.43;;;18.50;70.70;;;;;;5034179;28;20091;-46
2023/06/02 08:32:19;;;;;;;7.80;2.80;;;18.60;69.50;;;;;;5028581;28;20025;-46
2023/06/02 08:34:50;;;;;;;9.32;3.35;;;18.40;70.60;;;;;;5029867;28;20351;-46
2023/06/02 08:37:21;;;;;;;6.45;3.17;;;18.20;70.00;;;;;;5025263;28;20064;-46
2023/06/02 08:39:50;;;;;;;16.50;3.25;;;18.40;72.70;;;;;;5033746;28;20091;-47
2023/06/02 08:42:16;;;;;;;6.82;3.10;;;18.60;70.50;;;;;;5026922;28;20033;-45
2023/06/02 08:44:44;;;;;;;19.60;4.32;;;19.20;70.10;;;;;;5019532;28;20534;-46
2023/06/02 08:47:13;;;;;;;8.15;3.00;;;19.30;69.70;;;;;;5021288;28;20340;-47
2023/06/02 08:49:46;;;;;;;13.85;5.80;;;19.40;69.20;;;;;;5044339;28;20037;-47
2023/06/02 08:52:23;;;;;;;11.85;3.47;;;19.80;68.50;;;;;;5030367;28;20037;-46
2023/06/02 08:54:51;;;;;;;10.93;4.82;;;19.70;67.90;;;;;;5021141;28;20378;-46
2023/06/02 08:57:20;;;;;;;10.63;4.15;;;19.60;68.20;;;;;;5025250;28;20030;-46
2023/06/02 08:59:47;;;;;;;7.80;4.13;;;19.80;68.90;;;;;;5026895;28;20026;-46
2023/06/02 09:02:18;;;;;;;13.25;4.32;;;19.70;67.70;;;;;;5019241;28;20229;-47
2023/06/02 09:04:45;;;;;;;12.60;4.60;;;19.80;68.00;;;;;;5031753;28;20076;-46
2023/06/02 09:07:20;;;;;;;7.82;4.15;;;19.80;67.90;;;;;;5012692;28;20056;-46
2023/06/02 09:09:51;;;;;;;8.18;3.53;;;19.70;67.30;;;;;;5022406;28;20029;-48
2023/06/02 09:12:20;;;;;;;12.45;3.80;;;19.20;67.70;;;;;;5029277;28;20036;-46
2023/06/02 09:15:10;;;;;;;11.85;4.05;;;18.90;69.90;;;;;;5032827;28;20017;-47
2023/06/02 09:17:37;;;;;;;10.55;3.60;;;18.80;69.40;;;;;;5032821;28;20152;-47
2023/06/02 09:20:11;;;;;;;8.38;4.97;;;18.90;70.90;;;;;;5033158;28;20096;-49
2023/06/02 09:22:58;;;;;;;25.80;6.07;;;18.90;69.50;;;;;;5025259;28;20052;-45
2023/06/02 09:25:27;;;;;;;13.00;5.22;;;18.60;70.50;;;;;;5020816;28;20120;-46
2023/06/02 09:27:57;;;;;;;9.00;3.92;;;18.30;71.90;;;;;;5027890;28;20034;-44
2023/06/02 09:30:25;;;;;;;7.60;4.25;;;18.00;72.60;;;;;;5027398;28;20103;-46
2023/06/02 09:32:56;;;;;;;12.13;4.80;;;18.10;73.80;;;;;;5020907;28;20033;-47
2023/06/02 09:35:34;;;;;;;7.80;3.55;;;18.00;71.60;;;;;;5033369;28;20017;-45
2023/06/02 09:38:02;;;;;;;13.82;4.78;;;18.10;73.00;;;;;;5031843;28;20447;-46
2023/06/02 09:40:29;;;;;;;16.08;5.55;;;18.20;72.60;;;;;;5031012;28;20032;-46
2023/06/02 09:42:55;;;;;;;9.45;4.95;;;18.30;72.80;;;;;;5028650;28;20375;-46
2023/06/02 09:45:20;;;;;;;26.85;6.60;;;18.50;72.30;;;;;;5030744;28;20032;-45
2023/06/02 09:47:48;;;;;;;18.30;5.40;;;18.60;71.50;;;;;;5029859;28;20030;-46
2023/06/02 09:50:51;;;;;;;9.90;5.00;;;18.70;71.50;;;;;;5032969;28;20036;-46
2023/06/02 09:53:22;;;;;;;9.40;4.97;;;18.80;71.80;;;;;;5027851;28;20048;-46
2023/06/02 09:55:52;;;;;;;10.82;6.03;;;18.40;72.00;;;;;;5032893;28;20018;-46
2023/06/02 09:58:19;;;;;;;8.80;4.97;;;18.30;72.30;;;;;;5029792;28;20037;-46
2023/06/02 10:00:46;;;;;;;8.68;5.40;;;18.10;71.70;;;;;;5030984;28;20482;-46
2023/06/02 10:03:13;;;;;;;7.82;6.05;;;18.00;73.10;;;;;;5019488;28;20045;-47
2023/06/02 10:05:48;;;;;;;23.10;7.22;;;18.00;73.10;;;;;;5029674;28;20033;-48
2023/06/02 10:08:44;;;;;;;52.50;12.02;;;17.90;74.20;;;;;;5031882;28;20050;-46
2023/06/02 10:11:28;;;;;;;28.35;8.82;;;17.80;73.20;;;;;;5028222;28;20321;-45
2023/06/02 10:14:28;;;;;;;29.02;10.00;;;17.60;74.10;;;;;;5030911;28;20508;-46
2023/06/02 10:17:19;;;;;;;8.75;5.90;;;17.80;75.60;;;;;;5022541;28;20045;-45
2023/06/02 10:20:13;;;;;;;12.18;4.63;;;18.40;74.50;;;;;;5028435;28;20032;-47
2023/06/02 10:23:17;;;;;;;11.85;4.75;;;19.10;74.10;;;;;;5021540;28;20025;-45
2023/06/02 10:26:07;;;;;;;8.23;4.38;;;19.40;69.90;;;;;;5031690;28;20212;-47
2023/06/02 10:28:34;;;;;;;12.90;5.28;;;19.50;70.60;;;;;;5032597;28;20025;-47
2023/06/02 10:31:11;;;;;;;15.20;5.53;;;19.30;69.10;;;;;;5020658;28;20030;-47
2023/06/02 10:33:51;;;;;;;27.38;7.05;;;19.60;70.90;;;;;;5025967;28;20030;-46
2023/06/02 10:36:18;;;;;;;;;;;19.40;69.10;;;;;;5028061;28;20040;-47
2023/06/02 10:38:47;;;;;;;10.27;4.75;;;19.40;69.60;;;;;;5028241;28;19955;-47
2023/06/02 10:41:17;;;;;;;11.82;5.13;;;19.40;71.90;;;;;;5027864;28;20112;-46
2023/06/02 10:44:24;;;;;;;16.83;5.93;;;19.50;69.00;;;;;;5023113;28;20487;-46
2023/06/02 10:47:17;;;;;;;15.88;5.38;;;19.40;70.10;;;;;;5022916;28;20439;-45
2023/06/02 10:50:00;;;;;;;10.18;5.65;;;19.70;69.90;;;;;;5022503;28;20041;-46
2023/06/02 10:52:33;;;;;;;11.63;5.50;;;19.80;68.50;;;;;;5031454;28;20034;-46
2023/06/02 10:55:11;;;;;;;11.38;5.28;;;19.80;69.60;;;;;;5033853;28;20052;-46
2023/06/02 10:58:01;;;;;;;14.05;6.28;;;20.00;69.00;;;;;;5035651;28;20033;-47
2023/06/02 11:00:46;;;;;;;11.90;5.28;;;20.00;70.00;;;;;;5029467;28;20448;-47
2023/06/02 11:03:20;;;;;;;11.65;5.07;;;19.90;69.30;;;;;;5029564;28;20041;-47
2023/06/02 11:05:54;;;;;;;12.98;4.88;;;19.90;69.90;;;;;;5032137;28;20571;-46
2023/06/02 11:08:39;;;;;;;8.93;5.07;;;20.00;69.00;;;;;;5029387;28;20048;-46
2023/06/02 11:11:06;;;;;;;11.13;4.70;;;20.10;68.90;;;;;;5019127;28;20037;-46
2023/06/02 11:13:58;;;;;;;13.15;5.45;;;20.00;67.10;;;;;;5029715;28;20111;-47
2023/06/02 11:16:27;;;;;;;13.85;4.85;;;20.00;67.80;;;;;;5026343;28;20179;-46
2023/06/02 11:18:57;;;;;;;10.98;4.18;;;20.10;68.40;;;;;;5034682;28;20352;-46
2023/06/02 11:21:27;;;;;;;9.63;4.85;;;20.00;68.00;;;;;;5031258;28;20114;-46
2023/06/02 11:23:54;;;;;;;7.28;4.70;;;19.90;69.10;;;;;;5033390;28;20042;-47
2023/06/02 11:26:22;;;;;;;9.77;4.60;;;19.80;68.70;;;;;;5027050;28;20109;-46
2023/06/02 11:28:49;;;;;;;10.95;5.18;;;19.80;68.80;;;;;;5035508;28;20037;-48
2023/06/02 11:31:33;;;;;;;7.85;4.18;;;19.90;68.30;;;;;;5035474;28;20032;-46
2023/06/02 11:34:00;;;;;;;9.02;4.18;;;19.70;69.80;;;;;;5017898;28;20160;-46
2023/06/02 11:36:39;;;;;;;10.27;5.00;;;19.70;69.70;;;;;;5028612;28;20025;-46
2023/06/02 11:39:09;;;;;;;8.57;4.05;;;19.50;68.60;;;;;;5029048;28;20627;-47
2023/06/02 11:41:36;;;;;;;7.93;4.15;;;19.50;70.10;;;;;;5027252;28;20340;-47
2023/06/02 11:44:10;;;;;;;9.93;4.22;;;19.70;70.90;;;;;;5023682;28;20037;-46
2023/06/02 11:46:41;;;;;;;8.68;3.40;;;19.90;69.40;;;;;;5031145;28;20022;-47
2023/06/02 11:49:08;;;;;;;7.85;3.45;;;19.90;66.40;;;;;;5025561;28;20359;-47
2023/06/02 11:51:36;;;;;;;9.05;3.50;;;19.50;67.00;;;;;;5026266;28;20045;-48
2023/06/02 11:54:07;;;;;;;6.28;2.65;;;19.60;67.80;;;;;;5024898;28;20030;-45
2023/06/02 11:56:33;;;;;;;6.43;2.78;;;19.50;67.60;;;;;;5031916;28;20378;-46
2023/06/02 11:58:59;;;;;;;7.07;2.60;;;19.50;67.00;;;;;;5034233;28;20779;-46
2023/06/02 12:01:36;;;;;;;9.80;4.03;;;19.60;68.10;;;;;;5031442;28;20049;-47
2023/06/02 12:04:06;;;;;;;8.13;2.70;;;19.60;67.30;;;;;;5031135;28;20041;-50
2023/06/02 12:06:36;;;;;;;7.90;3.05;;;19.60;66.10;;;;;;5024469;28;20033;-46
2023/06/02 12:09:21;;;;;;;11.18;3.13;;;19.50;65.30;;;;;;5029791;28;20037;-46
2023/06/02 12:11:55;;;;;;;28.40;6.15;;;19.60;66.70;;;;;;5026956;28;20112;-47
2023/06/02 12:14:25;;;;;;;9.82;3.60;;;19.60;65.60;;;;;;5024870;28;20044;-47
2023/06/02 12:17:02;;;;;;;7.55;2.65;;;19.50;67.90;;;;;;5031956;28;20112;-47
2023/06/02 12:19:29;;;;;;;10.88;2.08;;;19.60;67.40;;;;;;5033755;28;20510;-46
2023/06/02 12:22:10;;;;;;;7.90;2.42;;;19.40;65.40;;;;;;5033922;28;20029;-46
2023/06/02 12:24:37;;;;;;;30.67;7.30;;;19.40;66.60;;;;;;5032100;28;20418;-46
2023/06/02 12:27:08;;;;;;;6.38;2.17;;;19.30;68.10;;;;;;5023522;28;20744;-48
2023/06/02 12:29:36;;;;;;;5.82;2.20;;;19.10;68.30;;;;;;5030883;28;20033;-47
2023/06/02 12:32:07;;;;;;;4.40;2.05;;;19.10;69.40;;;;;;5033292;28;20025;-46
2023/06/02 12:34:37;;;;;;;5.32;2.53;;;19.40;69.60;;;;;;5025036;28;20604;-46
2023/06/02 12:37:05;;;;;;;7.95;2.88;;;19.40;68.60;;;;;;5034426;28;20040;-46
2023/06/02 12:39:33;;;;;;;4.97;2.10;;;19.60;68.00;;;;;;5019869;28;20025;-46
2023/06/02 12:42:00;;;;;;;8.05;2.03;;;19.60;67.40;;;;;;5032144;28;20439;-47
2023/06/02 12:44:26;;;;;;;13.05;2.78;;;19.60;66.50;;;;;;5032029;28;20029;-48
2023/06/02 12:46:55;;;;;;;10.50;2.90;;;19.50;68.10;;;;;;5031136;28;20040;-45
2023/06/02 12:49:21;;;;;;;29.70;6.40;;;19.70;66.70;;;;;;5027823;28;20128;-46
2023/06/02 12:51:47;;;;;;;22.48;4.78;;;19.50;67.60;;;;;;5025244;28;20451;-46
2023/06/02 12:54:15;;;;;;;12.32;3.22;;;19.30;67.50;;;;;;5029195;28;20379;-47